Time;durP1;ratioP1;P1;durP2;ratioP2;P2;SDS_P1;SDS_P2;PMS_P1;PMS_P2;Temp;Humidity;BMP_temperature;BMP_pressure;BME280_temperature;BME280_humidity;BME280_pressure;Samples;Min_cycle;Max_cycle;Signal;HPM_P1;HPM_P2
2022/11/26 07:20:11;;;;;;;69.13;26.65;;;6.80;99.90;;;;;;5086068;28;20300;-48
2022/11/26 07:22:37;;;;;;;74.45;27.50;;;6.80;99.90;;;;;;5086870;28;20048;-46
2022/11/26 07:25:02;;;;;;;60.90;28.58;;;6.90;99.90;;;;;;5087105;28;20089;-46
2022/11/26 07:27:28;;;;;;;83.10;29.67;;;6.90;99.90;;;;;;5085920;28;20028;-45
2022/11/26 07:29:53;;;;;;;71.30;28.15;;;7.00;99.90;;;;;;5085273;28;20415;-45
2022/11/26 07:32:19;;;;;;;63.55;26.80;;;6.90;99.90;;;;;;5089138;28;20060;-47
2022/11/26 07:34:44;;;;;;;68.93;26.00;;;7.00;99.90;;;;;;5102482;28;20480;-46
2022/11/26 07:37:10;;;;;;;76.03;27.67;;;7.00;99.90;;;;;;5108032;28;20032;-46
2022/11/26 07:39:35;;;;;;;73.97;29.33;;;7.10;99.90;;;;;;5107353;28;20038;-47
2022/11/26 07:42:01;;;;;;;54.13;27.58;;;7.10;99.90;;;;;;5106340;28;20530;-46
2022/11/26 07:44:26;;;;;;;54.55;25.92;;;7.20;99.90;;;;;;5103357;28;20032;-47
2022/11/26 07:46:52;;;;;;;60.38;25.00;;;7.20;99.90;;;;;;5092994;28;20036;-46
2022/11/26 07:49:17;;;;;;;50.20;24.90;;;7.20;99.90;;;;;;5086171;28;20059;-47
2022/11/26 07:51:43;;;;;;;61.63;24.63;;;7.30;99.90;;;;;;5092468;28;20535;-46
2022/11/26 07:54:09;;;;;;;47.85;22.50;;;7.30;99.90;;;;;;5097655;28;20024;-46
2022/11/26 07:56:35;;;;;;;66.63;25.13;;;7.30;99.90;;;;;;5106158;28;20024;-46
2022/11/26 07:59:01;;;;;;;54.38;22.55;;;7.30;99.90;;;;;;5106177;28;20077;-49
2022/11/26 08:01:28;;;;;;;47.75;22.27;;;7.40;99.90;;;;;;5105511;28;20111;-49
2022/11/26 08:03:55;;;;;;;47.25;21.52;;;7.40;99.90;;;;;;5106068;28;20019;-47
2022/11/26 08:06:27;;;;;;;45.58;21.38;;;7.50;99.90;;;;;;5105905;28;20395;-49
2022/11/26 08:08:53;;;;;;;55.28;23.35;;;7.50;99.90;;;;;;5105602;28;20549;-47
2022/11/26 08:11:24;;;;;;;42.90;19.35;;;7.50;99.90;;;;;;5105361;28;20024;-48
2022/11/26 08:14:01;;;;;;;48.47;20.05;;;7.50;99.90;;;;;;5105966;28;20032;-49
2022/11/26 08:16:27;;;;;;;38.10;17.85;;;7.50;99.90;;;;;;5104482;28;20024;-47
2022/11/26 08:18:54;;;;;;;39.58;16.25;;;7.50;99.90;;;;;;5078551;28;20039;-47
2022/11/26 08:21:20;;;;;;;31.58;16.48;;;7.60;99.90;;;;;;5080095;28;20103;-48
2022/11/26 08:23:46;;;;;;;39.58;16.90;;;7.60;99.90;;;;;;5092586;28;20023;-47
2022/11/26 08:26:13;;;;;;;49.65;17.98;;;7.70;99.90;;;;;;5102373;28;20020;-47
2022/11/26 08:28:41;;;;;;;33.60;16.38;;;7.70;99.90;;;;;;5079718;28;20031;-48
2022/11/26 08:31:09;;;;;;;45.13;16.35;;;7.70;99.90;;;;;;5072868;28;20024;-50
2022/11/26 08:33:35;;;;;;;42.05;15.40;;;7.90;99.90;;;;;;5071156;28;20028;-47
2022/11/26 08:36:01;;;;;;;34.00;16.38;;;7.90;99.90;;;;;;5071641;28;20082;-47
2022/11/26 08:38:29;;;;;;;30.00;14.75;;;7.90;99.90;;;;;;5071517;28;20024;-46
2022/11/26 08:40:59;;;;;;;31.33;14.55;;;8.00;99.90;;;;;;5071257;28;20012;-46
2022/11/26 08:43:24;;;;;;;34.35;14.63;;;8.00;99.90;;;;;;5071311;28;20028;-47
2022/11/26 08:45:58;;;;;;;35.97;14.18;;;8.00;99.90;;;;;;5070079;28;20572;-47
2022/11/26 08:48:24;;;;;;;41.22;15.35;;;7.90;99.90;;;;;;5074523;28;20025;-47
2022/11/26 08:50:50;;;;;;;35.33;14.60;;;7.80;99.90;;;;;;5069913;28;20024;-48
2022/11/26 08:53:16;;;;;;;35.75;14.07;;;7.80;99.90;;;;;;5070699;28;20037;-47
2022/11/26 08:55:42;;;;;;;33.42;14.13;;;7.70;99.90;;;;;;5070369;28;20500;-47
2022/11/26 08:58:08;;;;;;;39.58;14.57;;;7.80;99.90;;;;;;5071011;28;20068;-46
2022/11/26 09:00:34;;;;;;;35.78;15.25;;;7.90;99.90;;;;;;5070572;28;20056;-50
2022/11/26 09:03:00;;;;;;;26.40;14.15;;;7.90;99.90;;;;;;5070528;28;20031;-47
2022/11/26 09:05:25;;;;;;;32.58;14.13;;;7.90;99.90;;;;;;5070835;28;20614;-47
2022/11/26 09:07:52;;;;;;;33.33;14.35;;;7.90;99.90;;;;;;5070408;28;20020;-47
2022/11/26 09:10:17;;;;;;;34.88;14.32;;;7.90;99.90;;;;;;5070378;28;20081;-50
2022/11/26 09:12:43;;;;;;;31.85;13.65;;;8.00;99.90;;;;;;5070723;28;20020;-48
2022/11/26 09:15:08;;;;;;;26.70;13.85;;;8.00;99.90;;;;;;5070660;28;20473;-47
2022/11/26 09:17:34;;;;;;;29.55;14.15;;;8.10;99.90;;;;;;5072804;28;20021;-47
2022/11/26 09:19:59;;;;;;;41.80;14.35;;;8.10;99.90;;;;;;5069830;28;20067;-47
2022/11/26 09:22:25;;;;;;;41.83;14.75;;;8.20;99.90;;;;;;5069157;28;20046;-47
2022/11/26 09:24:51;;;;;;;27.73;12.68;;;8.30;99.90;;;;;;5069020;28;20031;-46
2022/11/26 09:27:16;;;;;;;37.92;14.60;;;8.20;99.90;;;;;;5070219;28;20481;-47
2022/11/26 09:29:42;;;;;;;31.33;13.43;;;8.20;99.90;;;;;;5070268;28;20523;-47
2022/11/26 09:32:08;;;;;;;39.20;13.40;;;8.40;99.90;;;;;;5070307;28;20031;-47
2022/11/26 09:34:34;;;;;;;35.80;13.15;;;8.40;99.90;;;;;;5070292;28;20534;-46
2022/11/26 09:36:59;;;;;;;29.05;13.23;;;8.40;99.90;;;;;;5070168;28;20501;-48
2022/11/26 09:39:25;;;;;;;30.45;13.90;;;8.50;99.90;;;;;;5068035;28;20031;-46
2022/11/26 09:42:20;;;;;;;33.63;14.32;;;8.50;99.90;;;;;;5069654;28;20028;-47
2022/11/26 09:45:10;;;;;;;26.10;11.98;;;8.60;99.90;;;;;;5067940;28;20229;-47
2022/11/26 09:47:45;;;;;;;23.40;12.13;;;8.60;99.90;;;;;;5073410;28;20389;-47
2022/11/26 09:50:13;;;;;;;34.80;12.73;;;8.70;99.90;;;;;;5069446;28;20024;-47
2022/11/26 09:52:51;;;;;;;33.03;13.93;;;8.80;99.90;;;;;;5070543;28;20121;-47
2022/11/26 09:55:23;;;;;;;33.20;11.55;;;8.90;99.90;;;;;;5070643;28;20485;-49
2022/11/26 09:58:21;;;;;;;33.42;11.77;;;9.10;99.90;;;;;;5069827;28;20670;-46
2022/11/26 10:00:49;;;;;;;22.20;10.25;;;9.40;99.90;;;;;;5064385;28;20039;-47
2022/11/26 10:03:23;;;;;;;31.95;11.90;;;9.30;99.90;;;;;;5069645;28;20020;-47
2022/11/26 10:06:01;;;;;;;39.78;12.93;;;9.30;99.90;;;;;;5075898;28;20487;-47
2022/11/26 10:08:53;;;;;;;30.85;11.93;;;9.40;99.90;;;;;;5076720;28;20434;-49
2022/11/26 10:11:32;;;;;;;35.42;12.68;;;9.40;99.90;;;;;;5089276;28;20059;-47
2022/11/26 10:14:28;;;;;;;23.80;10.98;;;9.60;99.90;;;;;;5066614;28;20108;-46
2022/11/26 10:17:33;;;;;;;25.92;11.27;;;9.80;99.90;;;;;;5066268;28;20177;-50
2022/11/26 10:20:41;;;;;;;35.30;10.40;;;10.70;99.90;;;;;;5070022;28;20044;-51
2022/11/26 10:23:12;;;;;;;23.40;10.02;;;12.00;99.90;;;;;;5068730;28;20020;-47
2022/11/26 10:25:45;;;;;;;28.73;10.18;;;13.10;99.90;;;;;;5068733;28;20020;-47
2022/11/26 10:28:25;;;;;;;23.67;9.82;;;13.90;99.90;;;;;;5066939;28;20028;-48
2022/11/26 10:31:01;;;;;;;28.15;9.70;;;13.80;99.90;;;;;;5066987;28;20051;-49
2022/11/26 10:33:36;;;;;;;25.73;10.63;;;14.00;99.90;;;;;;5069430;28;20033;-50
2022/11/26 10:36:05;;;;;;;23.67;10.07;;;13.70;99.90;;;;;;5066429;28;20033;-50
2022/11/26 10:38:30;;;;;;;23.60;9.55;;;13.20;99.90;;;;;;5069150;28;20032;-48
2022/11/26 10:40:56;;;;;;;24.20;10.48;;;12.90;99.90;;;;;;5068989;28;20069;-51
2022/11/26 10:43:23;;;;;;;24.92;10.48;;;12.70;99.90;;;;;;5069574;28;20480;-47
2022/11/26 10:45:53;;;;;;;20.52;9.30;;;13.10;99.90;;;;;;5068622;28;20157;-51
2022/11/26 10:48:30;;;;;;;40.63;10.60;;;13.90;99.90;;;;;;5069567;28;20031;-48
2022/11/26 10:51:05;;;;;;;18.05;9.38;;;14.80;99.90;;;;;;5068437;28;20033;-50
2022/11/26 10:53:45;;;;;;;23.73;9.23;;;15.60;99.90;;;;;;5066871;28;20048;-51
2022/11/26 10:56:17;;;;;;;29.55;9.60;;;16.20;99.90;;;;;;5066507;28;20040;-48
2022/11/26 10:58:44;;;;;;;23.35;8.85;;;16.40;99.90;;;;;;5066415;28;20074;-51
2022/11/26 11:01:12;;;;;;;21.70;9.52;;;16.00;99.90;;;;;;5068375;28;20030;-51
2022/11/26 11:03:50;;;;;;;26.13;10.18;;;15.80;99.90;;;;;;5069234;28;20086;-48
2022/11/26 11:06:19;;;;;;;21.90;9.02;;;15.70;99.90;;;;;;5066637;28;20153;-51
2022/11/26 11:08:50;;;;;;;25.48;11.25;;;15.40;99.90;;;;;;5068989;28;20029;-50
2022/11/26 11:11:20;;;;;;;19.77;9.82;;;15.40;99.90;;;;;;5064680;28;20035;-48
2022/11/26 11:13:46;;;;;;;21.80;10.60;;;15.20;99.90;;;;;;5067421;28;20020;-51
2022/11/26 11:16:14;;;;;;;24.73;10.75;;;15.00;99.90;;;;;;5067448;28;20081;-51
2022/11/26 11:18:55;;;;;;;23.23;10.20;;;14.40;99.90;;;;;;5068359;28;20028;-50
2022/11/26 11:21:23;;;;;;;26.20;10.65;;;14.00;99.90;;;;;;5064891;28;20469;-47
2022/11/26 11:23:49;;;;;;;32.28;10.50;;;13.80;99.90;;;;;;5066960;28;20012;-51
2022/11/26 11:26:23;;;;;;;27.52;9.75;;;14.30;99.90;;;;;;5066829;28;20115;-48
2022/11/26 11:28:52;;;;;;;24.20;9.15;;;14.60;99.90;;;;;;5064926;28;20055;-48
2022/11/26 11:31:23;;;;;;;27.42;10.27;;;14.40;99.90;;;;;;5066189;28;20459;-48
2022/11/26 11:33:50;;;;;;;29.13;11.20;;;13.90;99.90;;;;;;5067958;28;20024;-48
2022/11/26 11:36:28;;;;;;;25.58;11.27;;;13.20;99.90;;;;;;5067073;28;20056;-47
2022/11/26 11:38:59;;;;;;;30.67;12.13;;;12.80;99.90;;;;;;5065662;28;20093;-47
2022/11/26 11:41:35;;;;;;;27.58;11.68;;;12.40;99.90;;;;;;5065324;28;20028;-47
2022/11/26 11:44:15;;;;;;;33.28;12.45;;;12.00;99.90;;;;;;5068260;28;20021;-47
2022/11/26 11:47:08;;;;;;;31.83;12.40;;;11.70;99.90;;;;;;5066930;28;20074;-47
2022/11/26 11:50:04;;;;;;;28.75;12.40;;;11.50;99.90;;;;;;5066740;28;20270;-48
2022/11/26 11:53:00;;;;;;;24.35;11.70;;;11.30;99.90;;;;;;5067849;28;20040;-47
2022/11/26 11:55:43;;;;;;;37.88;13.93;;;11.00;99.90;;;;;;5065796;28;20158;-47
2022/11/26 11:58:39;;;;;;;32.53;12.52;;;10.90;99.90;;;;;;5067586;28;21326;-47
2022/11/26 12:01:24;;;;;;;34.17;13.65;;;10.60;99.90;;;;;;5064274;28;20060;-47
2022/11/26 12:04:24;;;;;;;36.30;14.50;;;10.50;99.90;;;;;;5068860;28;20020;-48
2022/11/26 12:07:17;;;;;;;35.60;14.18;;;10.50;99.90;;;;;;5072493;28;20019;-47
2022/11/26 12:10:00;;;;;;;31.80;13.82;;;10.50;99.90;;;;;;5073100;28;20043;-47
2022/11/26 12:12:35;;;;;;;34.72;13.75;;;10.40;99.90;;;;;;5073303;28;20024;-50
2022/11/26 12:15:11;;;;;;;27.40;13.00;;;10.40;99.90;;;;;;5071957;28;20062;-47
2022/11/26 12:17:59;;;;;;;31.05;13.85;;;10.50;99.90;;;;;;5072577;28;20020;-50
2022/11/26 12:20:48;;;;;;;44.75;14.63;;;10.60;99.90;;;;;;5071175;28;20064;-50
2022/11/26 12:23:51;;;;;;;30.45;12.82;;;10.80;99.90;;;;;;5072592;28;20111;-46
2022/11/26 12:26:24;;;;;;;31.55;13.07;;;10.90;99.90;;;;;;5071980;28;20028;-47
2022/11/26 12:29:05;;;;;;;35.70;14.00;;;10.80;99.90;;;;;;5069458;28;20031;-47
2022/11/26 12:31:44;;;;;;;37.55;13.85;;;10.80;99.90;;;;;;5073143;28;20552;-48
2022/11/26 12:34:13;;;;;;;32.38;13.38;;;10.70;99.90;;;;;;5091215;28;20652;-47
2022/11/26 12:36:48;;;;;;;36.20;13.27;;;10.70;99.90;;;;;;5081601;28;20025;-49
2022/11/26 12:39:38;;;;;;;27.75;12.60;;;10.50;99.90;;;;;;5072192;28;20044;-50
2022/11/26 12:42:15;;;;;;;35.25;13.52;;;10.40;99.90;;;;;;5072130;28;20036;-49
2022/11/26 12:44:45;;;;;;;40.58;13.48;;;10.50;99.90;;;;;;5069987;28;20099;-46
2022/11/26 12:47:25;;;;;;;31.92;12.55;;;10.50;99.90;;;;;;5071228;28;20044;-49
2022/11/26 12:50:05;;;;;;;38.00;14.35;;;10.50;99.90;;;;;;5071136;28;20020;-49
2022/11/26 12:52:40;;;;;;;30.13;13.07;;;10.40;99.90;;;;;;5070257;28;20062;-50
2022/11/26 12:55:19;;;;;;;37.63;14.43;;;10.40;99.90;;;;;;5064296;28;20060;-46
2022/11/26 12:57:55;;;;;;;43.00;13.50;;;10.30;99.90;;;;;;5071685;28;20424;-47
2022/11/26 13:00:26;;;;;;;36.05;13.40;;;10.30;99.90;;;;;;5070673;28;20036;-49
2022/11/26 13:02:52;;;;;;;31.85;14.25;;;10.20;99.90;;;;;;5071762;28;20361;-47
2022/11/26 13:05:29;;;;;;;33.50;13.40;;;10.20;99.90;;;;;;5070302;28;20095;-48
2022/11/26 13:08:15;;;;;;;34.40;13.27;;;10.20;99.90;;;;;;5072103;28;20028;-49
2022/11/26 13:11:00;;;;;;;44.35;13.43;;;10.30;99.90;;;;;;5070085;28;20559;-49
2022/11/26 13:13:47;;;;;;;36.67;13.07;;;10.30;99.90;;;;;;5078443;28;20028;-48
2022/11/26 13:16:34;;;;;;;31.52;13.80;;;10.30;99.90;;;;;;5071870;28;20558;-51
2022/11/26 13:19:08;;;;;;;29.98;11.43;;;10.30;99.90;;;;;;5072012;28;20556;-48
2022/11/26 13:22:04;;;;;;;38.15;14.40;;;10.40;99.90;;;;;;5072011;28;20342;-47
2022/11/26 13:24:41;;;;;;;40.75;14.75;;;10.30;99.90;;;;;;5071346;28;20473;-49
2022/11/26 13:27:06;;;;;;;36.55;13.43;;;10.30;99.90;;;;;;5071061;28;20451;-49
2022/11/26 13:29:53;;;;;;;36.00;14.35;;;10.30;99.90;;;;;;5070802;28;20047;-47
2022/11/26 13:33:02;;;;;;;38.67;13.73;;;10.30;99.90;;;;;;5072058;28;20035;-50
2022/11/26 13:35:56;;;;;;;34.95;13.20;;;10.10;99.90;;;;;;5072064;28;20052;-49
2022/11/26 13:38:30;;;;;;;32.00;14.50;;;10.00;99.90;;;;;;5071795;28;20584;-47
2022/11/26 13:41:22;;;;;;;40.10;14.05;;;10.00;99.90;;;;;;5070487;28;20028;-48
2022/11/26 13:44:17;;;;;;;35.70;12.68;;;9.90;99.90;;;;;;5071587;28;20017;-50
2022/11/26 13:47:07;;;;;;;36.28;13.43;;;10.00;99.90;;;;;;5058351;28;20674;-48
2022/11/26 13:50:10;;;;;;;28.90;13.17;;;10.00;99.90;;;;;;5069651;28;20043;-47
2022/11/26 13:52:47;;;;;;;31.60;13.32;;;10.00;99.90;;;;;;5067631;28;20082;-46
2022/11/26 13:55:23;;;;;;;30.15;12.43;;;9.90;99.90;;;;;;5063548;28;20054;-48
2022/11/26 13:57:54;;;;;;;27.27;12.98;;;9.90;99.90;;;;;;5066581;28;20023;-50
2022/11/26 14:00:23;;;;;;;38.25;13.82;;;9.90;99.90;;;;;;5068860;28;20024;-50
2022/11/26 14:02:49;;;;;;;34.83;13.17;;;9.80;99.90;;;;;;5066058;28;20062;-48
2022/11/26 14:05:16;;;;;;;43.25;15.93;;;9.90;99.90;;;;;;5068458;28;20025;-48
2022/11/26 14:07:42;;;;;;;28.00;12.60;;;9.80;99.90;;;;;;5067584;28;20025;-50
2022/11/26 14:10:38;;;;;;;37.33;13.70;;;9.80;99.90;;;;;;5068245;28;20016;-48
2022/11/26 14:13:06;;;;;;;29.90;12.30;;;9.80;99.90;;;;;;5069361;28;20050;-50
2022/11/26 14:15:41;;;;;;;34.17;12.43;;;9.80;99.90;;;;;;5069338;28;20020;-48
2022/11/26 14:18:17;;;;;;;33.22;13.10;;;9.80;99.90;;;;;;5070566;28;20024;-50
2022/11/26 14:21:00;;;;;;;32.22;13.68;;;9.80;99.90;;;;;;5068415;28;20027;-50
2022/11/26 14:23:43;;;;;;;38.92;13.65;;;9.70;99.90;;;;;;5070877;28;20104;-47
2022/11/26 14:26:30;;;;;;;32.85;13.38;;;9.70;99.90;;;;;;5069281;28;20031;-47
2022/11/26 14:29:06;;;;;;;31.80;12.75;;;9.60;99.90;;;;;;5068605;28;20040;-47
2022/11/26 14:31:32;;;;;;;39.42;16.42;;;9.60;99.90;;;;;;5069248;28;20033;-46
2022/11/26 14:34:19;;;;;;;34.83;14.40;;;9.60;99.90;;;;;;5070625;28;20036;-51
2022/11/26 14:36:56;;;;;;;32.53;13.70;;;9.60;99.90;;;;;;5070790;28;20028;-51
2022/11/26 14:39:23;;;;;;;37.38;17.02;;;9.50;99.90;;;;;;5068741;28;20117;-46
2022/11/26 14:41:57;;;;;;;31.27;15.63;;;9.50;99.90;;;;;;5068716;28;20027;-46
2022/11/26 14:44:24;;;;;;;33.35;15.43;;;9.50;99.90;;;;;;5066218;28;20048;-50
2022/11/26 14:47:06;;;;;;;49.55;17.70;;;9.40;99.90;;;;;;5065102;28;20016;-46
2022/11/26 14:49:37;;;;;;;33.92;13.50;;;9.40;99.90;;;;;;5065813;28;20457;-47
2022/11/26 14:52:25;;;;;;;32.33;14.18;;;9.40;99.90;;;;;;5067079;28;20028;-46
2022/11/26 14:54:53;;;;;;;41.10;15.43;;;9.40;99.90;;;;;;5065465;28;20028;-46
2022/11/26 14:57:25;;;;;;;37.63;15.15;;;9.30;99.90;;;;;;5056345;28;20366;-46
2022/11/26 15:00:20;;;;;;;36.40;15.35;;;9.40;99.90;;;;;;5066228;28;20032;-48
2022/11/26 15:02:46;;;;;;;36.28;15.45;;;9.40;99.90;;;;;;5066319;28;20558;-46
2022/11/26 15:05:14;;;;;;;38.30;16.17;;;9.40;99.90;;;;;;5064314;28;20056;-47
2022/11/26 15:07:40;;;;;;;43.00;17.77;;;9.40;99.90;;;;;;5071824;28;20020;-47
2022/11/26 15:10:19;;;;;;;35.97;15.98;;;9.30;99.90;;;;;;5066124;28;20074;-46
2022/11/26 15:12:47;;;;;;;33.63;14.18;;;9.30;99.90;;;;;;5064953;28;20497;-49
2022/11/26 15:15:16;;;;;;;37.45;15.10;;;9.30;99.90;;;;;;5067327;28;20033;-48
2022/11/26 15:17:45;;;;;;;38.10;16.42;;;9.30;99.90;;;;;;5065197;28;20370;-47
2022/11/26 15:20:14;;;;;;;37.53;17.90;;;9.30;99.90;;;;;;5066418;28;20033;-47
2022/11/26 15:22:46;;;;;;;42.63;16.50;;;9.30;99.90;;;;;;5079216;28;20027;-47
2022/11/26 15:25:22;;;;;;;39.90;16.83;;;9.30;99.90;;;;;;5078852;28;20035;-46
2022/11/26 15:28:00;;;;;;;40.25;17.42;;;9.20;99.90;;;;;;5066997;28;20017;-46
2022/11/26 15:30:30;;;;;;;43.05;17.00;;;9.20;99.90;;;;;;5067215;28;20117;-48
2022/11/26 15:33:09;;;;;;;31.45;15.27;;;9.10;99.90;;;;;;5067365;28;20074;-48
2022/11/26 15:35:36;;;;;;;46.33;16.75;;;9.10;99.90;;;;;;5068210;28;20023;-47
2022/11/26 15:38:26;;;;;;;46.53;17.25;;;9.00;99.90;;;;;;5067941;28;20103;-46
2022/11/26 15:40:56;;;;;;;51.30;18.23;;;9.00;99.90;;;;;;5066624;28;20028;-48
2022/11/26 15:43:32;;;;;;;43.53;17.40;;;8.90;99.90;;;;;;5072173;28;20027;-48
2022/11/26 15:46:21;;;;;;;44.60;18.85;;;8.90;99.90;;;;;;5071328;28;20036;-48
2022/11/26 15:48:50;;;;;;;38.95;16.77;;;8.80;99.90;;;;;;5088850;28;20023;-46
2022/11/26 15:51:33;;;;;;;38.53;16.67;;;8.70;99.90;;;;;;5092200;28;20391;-50
2022/11/26 15:54:00;;;;;;;28.52;14.38;;;8.70;99.90;;;;;;5091038;28;20051;-47
2022/11/26 15:56:32;;;;;;;37.20;16.88;;;8.60;99.90;;;;;;5092140;28;20633;-49
2022/11/26 15:59:01;;;;;;;40.13;16.17;;;8.50;99.90;;;;;;5090847;28;20035;-47
2022/11/26 16:01:31;;;;;;;34.70;16.10;;;8.50;99.90;;;;;;5090048;28;20103;-50
2022/11/26 16:04:03;;;;;;;41.60;16.85;;;8.40;99.90;;;;;;5090911;28;20054;-47
2022/11/26 16:06:28;;;;;;;38.03;16.90;;;8.30;99.90;;;;;;5090727;28;20024;-47
2022/11/26 16:09:05;;;;;;;51.10;19.35;;;8.30;99.90;;;;;;5091015;28;20024;-47
2022/11/26 16:11:35;;;;;;;38.28;18.38;;;8.20;99.90;;;;;;5091427;28;20141;-46
2022/11/26 16:14:31;;;;;;;36.70;17.42;;;8.20;99.90;;;;;;5073370;28;20473;-48
2022/11/26 16:17:04;;;;;;;46.00;18.25;;;8.10;99.90;;;;;;5081515;28;20044;-47
2022/11/26 16:19:30;;;;;;;51.90;18.20;;;8.10;99.90;;;;;;5091763;28;20040;-50
2022/11/26 16:21:56;;;;;;;43.10;17.27;;;8.10;99.90;;;;;;5092217;28;20065;-48
2022/11/26 16:24:38;;;;;;;33.33;17.40;;;8.10;99.90;;;;;;5090770;28;20496;-51
2022/11/26 16:27:19;;;;;;;36.17;16.13;;;8.10;99.90;;;;;;5092401;28;20250;-46
2022/11/26 16:29:45;;;;;;;;;;;8.00;99.90;;;;;;5092045;28;20476;-47
2022/11/26 16:32:11;;;;;;;32.75;14.05;;;8.00;99.90;;;;;;5086964;28;19962;-47
2022/11/26 16:34:37;;;;;;;28.83;13.82;;;8.00;99.90;;;;;;5070925;28;20028;-47
2022/11/26 16:37:27;;;;;;;34.92;15.52;;;8.00;99.90;;;;;;5069693;28;20028;-47
2022/11/26 16:40:00;;;;;;;47.08;15.63;;;7.90;99.90;;;;;;5061432;28;20378;-48
2022/11/26 16:42:25;;;;;;;43.72;18.80;;;7.90;99.90;;;;;;5070298;28;20005;-47
2022/11/26 16:44:51;;;;;;;38.80;16.50;;;7.90;99.90;;;;;;5070961;28;20413;-47
2022/11/26 16:47:23;;;;;;;37.50;14.85;;;7.80;99.90;;;;;;5069323;28;20119;-46
2022/11/26 16:49:49;;;;;;;45.13;15.85;;;7.80;99.90;;;;;;5070025;28;20029;-47
2022/11/26 16:52:17;;;;;;;34.85;14.90;;;7.70;99.90;;;;;;5068969;28;20066;-47
2022/11/26 16:54:43;;;;;;;26.98;11.88;;;7.60;99.90;;;;;;5070352;28;20036;-47
2022/11/26 16:57:13;;;;;;;27.23;13.00;;;7.60;99.90;;;;;;5069423;28;20582;-49
2022/11/26 16:59:39;;;;;;;27.30;12.50;;;7.50;99.90;;;;;;5070010;28;20044;-46
2022/11/26 17:02:15;;;;;;;24.05;12.95;;;7.40;99.90;;;;;;5069091;28;20071;-48
2022/11/26 17:04:40;;;;;;;26.63;13.23;;;7.40;99.90;;;;;;5070329;28;20374;-47
2022/11/26 17:07:21;;;;;;;30.35;14.07;;;7.40;99.90;;;;;;5069455;28;20071;-46
2022/11/26 17:09:47;;;;;;;31.95;16.25;;;7.30;99.90;;;;;;5066584;28;20520;-47
2022/11/26 17:12:19;;;;;;;28.50;13.10;;;7.30;99.90;;;;;;5070624;28;20256;-48
2022/11/26 17:14:45;;;;;;;31.33;14.40;;;7.30;99.90;;;;;;5078590;28;20036;-48
2022/11/26 17:17:13;;;;;;;33.42;14.57;;;7.30;99.90;;;;;;5069444;28;20162;-47
2022/11/26 17:19:40;;;;;;;31.85;14.63;;;7.30;99.90;;;;;;5067729;28;20358;-46
2022/11/26 17:22:09;;;;;;;40.95;16.52;;;7.30;99.90;;;;;;5069965;28;20088;-46
2022/11/26 17:24:36;;;;;;;47.85;17.60;;;7.30;99.90;;;;;;5069007;28;20035;-46
2022/11/26 17:27:04;;;;;;;44.75;16.45;;;7.40;99.90;;;;;;5069753;28;20028;-46
2022/11/26 17:29:31;;;;;;;31.80;15.27;;;7.40;99.90;;;;;;5063123;28;20047;-49
2022/11/26 17:31:58;;;;;;;40.85;16.30;;;7.40;99.90;;;;;;5069821;28;20028;-47
2022/11/26 17:34:24;;;;;;;37.78;16.40;;;7.40;99.90;;;;;;5068662;28;20020;-48
2022/11/26 17:36:49;;;;;;;36.35;15.07;;;7.40;99.90;;;;;;5067624;28;20031;-47
2022/11/26 17:39:15;;;;;;;38.83;14.40;;;7.40;99.90;;;;;;5068336;28;20452;-46
2022/11/26 17:41:40;;;;;;;38.05;14.93;;;7.40;99.90;;;;;;5070134;28;20162;-47
2022/11/26 17:44:06;;;;;;;38.00;13.80;;;7.40;99.90;;;;;;5068333;28;20389;-46
2022/11/26 17:46:31;;;;;;;39.42;18.38;;;7.40;99.90;;;;;;5068270;28;20016;-47
2022/11/26 17:48:57;;;;;;;37.88;14.80;;;7.40;99.90;;;;;;5068768;28;20021;-46
2022/11/26 17:51:22;;;;;;;42.65;15.93;;;7.40;99.90;;;;;;5069096;28;20056;-48
2022/11/26 17:53:48;;;;;;;36.70;14.40;;;7.40;99.90;;;;;;5069202;28;20032;-48
2022/11/26 17:56:19;;;;;;;43.03;16.13;;;7.40;99.90;;;;;;5069562;28;20036;-49
2022/11/26 17:58:45;;;;;;;40.25;16.30;;;7.30;99.90;;;;;;5068876;28;20032;-48
2022/11/26 18:01:10;;;;;;;38.78;15.93;;;7.30;99.90;;;;;;5068732;28;20016;-47
2022/11/26 18:03:36;;;;;;;41.38;15.65;;;7.30;99.90;;;;;;5063666;28;20021;-46
2022/11/26 18:06:01;;;;;;;38.78;15.70;;;7.30;99.90;;;;;;5066007;28;20067;-46
2022/11/26 18:08:27;;;;;;;48.67;16.70;;;7.30;99.90;;;;;;5082562;28;20024;-46
2022/11/26 18:10:52;;;;;;;32.30;14.05;;;7.20;99.90;;;;;;5069716;28;20283;-46
2022/11/26 18:13:18;;;;;;;38.67;15.52;;;7.20;99.90;;;;;;5067702;28;20024;-46
2022/11/26 18:15:43;;;;;;;39.22;15.65;;;7.20;99.90;;;;;;5065866;28;20067;-46
2022/11/26 18:18:08;;;;;;;41.83;14.52;;;7.20;99.90;;;;;;5068385;28;20111;-47
2022/11/26 18:20:34;;;;;;;35.05;15.73;;;7.10;99.90;;;;;;5066773;28;20027;-47
2022/11/26 18:23:00;;;;;;;39.38;15.75;;;7.10;99.90;;;;;;5068467;28;20031;-48
2022/11/26 18:25:26;;;;;;;40.20;15.50;;;7.10;99.90;;;;;;5065690;28;20048;-49
2022/11/26 18:27:52;;;;;;;35.22;14.63;;;7.10;99.90;;;;;;5066739;28;20017;-52
2022/11/26 18:30:19;;;;;;;46.72;14.95;;;7.10;99.90;;;;;;5066672;28;20070;-47
2022/11/26 18:32:44;;;;;;;30.15;12.77;;;7.10;99.90;;;;;;5067819;28;20308;-50
2022/11/26 18:35:10;;;;;;;36.00;15.25;;;7.10;99.90;;;;;;5086864;28;20161;-52
2022/11/26 18:37:38;;;;;;;37.95;13.75;;;7.10;99.90;;;;;;5062389;28;20021;-46
2022/11/26 18:40:06;;;;;;;32.75;14.15;;;7.10;99.90;;;;;;5067545;28;20025;-46
2022/11/26 18:42:31;;;;;;;37.20;13.20;;;7.00;99.90;;;;;;5064932;28;20016;-48
2022/11/26 18:44:57;;;;;;;36.38;14.75;;;7.00;99.90;;;;;;5069031;28;20534;-47
2022/11/26 18:47:23;;;;;;;58.38;26.23;;;7.00;99.90;;;;;;5066156;28;20024;-47
2022/11/26 18:49:48;;;;;;;33.33;14.18;;;7.00;99.90;;;;;;5068957;28;20158;-47
2022/11/26 18:52:14;;;;;;;29.20;11.68;;;7.00;99.90;;;;;;5067947;28;20069;-47
2022/11/26 18:54:39;;;;;;;32.33;11.65;;;7.00;99.90;;;;;;5068781;28;20035;-47
2022/11/26 18:57:04;;;;;;;26.30;10.73;;;7.00;99.90;;;;;;5068436;28;20032;-52
2022/11/26 18:59:30;;;;;;;33.50;12.48;;;7.00;99.90;;;;;;5067409;28;20043;-52
2022/11/26 19:01:55;;;;;;;38.50;12.27;;;7.10;99.90;;;;;;5068649;28;20102;-48
2022/11/26 19:04:21;;;;;;;38.47;12.05;;;7.00;99.90;;;;;;5067478;28;20027;-50
2022/11/26 19:06:46;;;;;;;37.00;11.00;;;7.00;99.90;;;;;;5068862;28;20063;-51
2022/11/26 19:09:18;;;;;;;31.95;11.43;;;7.10;99.90;;;;;;5066711;28;20382;-48
2022/11/26 19:11:44;;;;;;;30.70;10.57;;;7.00;99.90;;;;;;5068537;28;20032;-48
2022/11/26 19:14:14;;;;;;;38.85;12.10;;;7.10;99.90;;;;;;5066869;28;20633;-48
2022/11/26 19:16:41;;;;;;;25.67;10.15;;;7.00;99.90;;;;;;5068661;28;20055;-48
2022/11/26 19:19:07;;;;;;;29.23;10.27;;;7.00;99.90;;;;;;5068479;28;20621;-49
2022/11/26 19:21:33;;;;;;;32.85;12.25;;;7.00;99.90;;;;;;5067407;28;20033;-47
2022/11/26 19:24:02;;;;;;;30.13;10.18;;;7.00;99.90;;;;;;5068790;28;20070;-47
2022/11/26 19:26:28;;;;;;;27.90;10.90;;;7.00;99.90;;;;;;5067326;28;20512;-47
2022/11/26 19:28:54;;;;;;;22.10;10.30;;;7.10;99.90;;;;;;5068521;28;20027;-49
2022/11/26 19:31:22;;;;;;;35.83;11.35;;;7.10;99.90;;;;;;5065462;28;20025;-46
2022/11/26 19:33:56;;;;;;;33.05;10.23;;;7.10;99.90;;;;;;5068514;28;20133;-46
2022/11/26 19:36:22;;;;;;;29.77;9.93;;;7.00;99.90;;;;;;5067075;28;20019;-52
2022/11/26 19:38:54;;;;;;;24.65;9.73;;;7.00;99.90;;;;;;5068363;28;20103;-47
2022/11/26 19:41:19;;;;;;;30.98;11.73;;;7.00;99.90;;;;;;5067148;28;20025;-47
2022/11/26 19:43:45;;;;;;;27.65;9.85;;;7.00;99.90;;;;;;5068289;28;20067;-46
2022/11/26 19:46:16;;;;;;;25.60;9.57;;;7.00;99.90;;;;;;5066795;28;20444;-47
2022/11/26 19:48:43;;;;;;;23.98;8.60;;;7.00;99.90;;;;;;5068432;28;20052;-47
2022/11/26 19:51:10;;;;;;;35.33;10.23;;;6.90;99.90;;;;;;5066602;28;21319;-47
2022/11/26 19:53:36;;;;;;;20.23;9.00;;;6.90;99.90;;;;;;5067900;28;20024;-48
2022/11/26 19:56:05;;;;;;;26.95;9.27;;;6.90;99.90;;;;;;5067334;28;20020;-47
2022/11/26 19:58:33;;;;;;;34.25;10.63;;;6.90;99.90;;;;;;5067548;28;20037;-46
2022/11/26 20:00:58;;;;;;;17.65;9.25;;;6.80;99.90;;;;;;5067488;28;20112;-47
2022/11/26 20:03:24;;;;;;;30.67;9.65;;;6.80;99.90;;;;;;5067272;28;20120;-47
2022/11/26 20:05:50;;;;;;;24.95;9.88;;;6.80;99.90;;;;;;5067630;28;20542;-47
2022/11/26 20:08:17;;;;;;;27.98;10.40;;;6.80;99.90;;;;;;5066597;28;20064;-46
2022/11/26 20:10:43;;;;;;;26.60;10.15;;;6.80;99.90;;;;;;5067960;28;20016;-46
2022/11/26 20:13:10;;;;;;;31.48;10.98;;;6.70;99.90;;;;;;5066558;28;20600;-46
2022/11/26 20:15:41;;;;;;;22.88;10.10;;;6.70;99.90;;;;;;5068356;28;20112;-49
2022/11/26 20:18:10;;;;;;;26.05;9.48;;;6.60;99.90;;;;;;5066577;28;20123;-46
2022/11/26 20:20:36;;;;;;;25.88;9.90;;;6.60;99.90;;;;;;5067392;28;20032;-47